Anahola, Hawaii
Current Conditions -  °F | °C
As of 12:53 PM on Monday 24 Nov 2014 (Local Time) from PHLI Reporting Station
Overcast Overcast  
Wind Chill: 76°   Ceiling: 5500
Heat Index: 76°   Visibility: 10mi
Dew Point: 57°   Wind: 17mph
Humidity: 52%   Direction: 350°N
Pressure: 29.93"   Gusts: NA
Location:  22.14°N, 159.31°W
Report Text: PHLI 242253Z 35015KT 10SM OVC055 24/14 A2993 RMK AO2 SLP134 T02440139 $
Loading
Personal Weather Stations






























Interactive Weather Map New forecast layout! Learn more

10-Day Weather Forecast

Advertisements
Track Severe Weather on mobile